Time;durP1;ratioP1;P1;durP2;ratioP2;P2;SDS_P1;SDS_P2;PMS_P1;PMS_P2;Temp;Humidity;BMP_temperature;BMP_pressure;BME280_temperature;BME280_humidity;BME280_pressure;Samples;Min_cycle;Max_cycle;Signal;HPM_P1;HPM_P2
2022/05/17 00:04:18;;;;;;;12.52;6.63;;;;;;;10.34;94.93;101844.81;10531156;27;20118;-75
2022/05/17 00:09:18;;;;;;;18.65;7.72;;;;;;;10.18;94.51;101851.66;10522008;27;20135;-75
2022/05/17 00:14:19;;;;;;;12.25;8.95;;;;;;;10.09;94.83;101851.06;10503693;27;20115;-75
2022/05/17 00:19:20;;;;;;;17.95;9.10;;;;;;;10.02;95.35;101843.63;10520723;27;20132;-75
2022/05/17 00:24:20;;;;;;;16.13;11.55;;;;;;;10.08;95.66;101850.19;10485699;27;20872;-75
2022/05/17 00:29:21;;;;;;;20.30;10.05;;;;;;;10.02;96.63;101849.78;10524308;27;20035;-75
2022/05/17 00:34:23;;;;;;;15.02;9.45;;;;;;;10.05;97.04;101839.53;10527906;27;20085;-75
2022/05/17 00:39:23;;;;;;;12.27;8.27;;;;;;;10.00;96.87;101835.69;10519600;27;20093;-75
2022/05/17 00:49:58;;;;;;;17.52;10.63;;;;;;;9.88;97.43;101838.41;10521743;27;20111;-75
2022/05/17 00:55:14;;;;;;;18.80;10.55;;;;;;;9.83;97.90;101829.34;10524297;27;20454;-74
2022/05/17 01:00:16;;;;;;;18.23;11.52;;;;;;;9.78;98.30;101820.28;10513386;27;20395;-75
2022/05/17 01:05:16;;;;;;;14.18;8.70;;;;;;;9.74;98.69;101821.81;10523888;27;20104;-74
2022/05/17 01:10:17;;;;;;;14.70;10.27;;;;;;;9.72;98.59;101826.03;10501058;27;20063;-74
2022/05/17 01:15:17;;;;;;;14.02;8.60;;;;;;;9.78;98.54;101826.44;10520092;27;20052;-75
2022/05/17 01:20:23;;;;;;;12.85;8.60;;;;;;;9.73;97.38;101824.31;10526564;27;20043;-74
2022/05/17 01:25:24;;;;;;;13.40;7.20;;;;;;;9.62;97.27;101827.09;10515461;27;20039;-75
2022/05/17 01:30:26;;;;;;;15.75;10.52;;;;;;;9.46;97.33;101824.28;10519087;27;20563;-75
2022/05/17 01:35:26;;;;;;;14.10;8.93;;;;;;;9.40;97.78;101820.44;10532334;27;20042;-75
2022/05/17 01:40:27;;;;;;;14.65;9.50;;;;;;;9.35;98.53;101821.84;10521788;27;20501;-74
2022/05/17 01:45:27;;;;;;;20.08;9.20;;;;;;;9.32;98.40;101816.41;10504411;27;20106;-74
2022/05/17 01:50:28;;;;;;;20.27;9.40;;;;;;;9.35;99.00;101808.78;10519199;27;20047;-75
2022/05/17 01:55:28;;;;;;;15.88;9.40;;;;;;;9.35;99.30;101819.22;10504756;27;20048;-74
2022/05/17 02:00:29;;;;;;;20.42;9.75;;;;;;;9.35;99.90;101821.84;10526003;27;20118;-76
2022/05/17 02:05:29;;;;;;;14.10;8.40;;;;;;;9.26;99.36;101821.22;10519367;27;20384;-75
2022/05/17 02:10:30;;;;;;;18.13;9.50;;;;;;;9.24;99.87;101810.69;10519815;27;20553;-75
2022/05/17 02:15:30;;;;;;;14.20;10.38;;;;;;;9.31;100.00;101808.47;10517735;27;20127;-75
2022/05/17 02:20:31;;;;;;;20.33;11.15;;;;;;;9.38;100.00;101802.88;10554638;27;20391;-74
2022/05/17 02:25:31;;;;;;;15.32;10.73;;;;;;;9.50;100.00;101805.38;10524726;27;20115;-75
2022/05/17 02:30:32;;;;;;;13.35;9.68;;;;;;;9.68;100.00;101810.94;10533477;27;20059;-75
2022/05/17 02:35:32;;;;;;;15.75;9.30;;;;;;;9.82;100.00;101830.16;10519709;27;20124;-74
2022/05/17 02:40:33;;;;;;;13.48;8.98;;;;;;;9.95;100.00;101824.03;10527074;27;20955;-75
2022/05/17 02:45:34;;;;;;;14.23;8.90;;;;;;;10.06;100.00;101836.09;10514371;27;20097;-75
2022/05/17 02:50:34;;;;;;;14.60;8.68;;;;;;;10.16;100.00;101827.13;10530953;27;20051;-75
2022/05/17 02:55:35;;;;;;;22.38;8.43;;;;;;;10.29;100.00;101834.06;10506033;27;20046;-75
2022/05/17 03:00:35;;;;;;;11.05;8.95;;;;;;;10.31;99.97;101839.38;10529444;27;20067;-75
2022/05/17 03:05:36;;;;;;;10.13;7.32;;;;;;;10.44;99.98;101836.78;10522714;27;20166;-75
2022/05/17 03:10:37;;;;;;;10.25;7.35;;;;;;;10.53;99.77;101833.84;10523463;27;20052;-76
2022/05/17 03:15:37;;;;;;;11.48;6.88;;;;;;;10.56;99.56;101842.78;10525563;27;20043;-75
2022/05/17 03:20:38;;;;;;;12.93;7.63;;;;;;;10.56;99.28;101842.78;10489596;27;20099;-75
2022/05/17 03:25:38;;;;;;;10.02;6.38;;;;;;;10.62;99.10;101838.75;10525149;27;20055;-75
2022/05/17 03:30:39;;;;;;;10.27;6.18;;;;;;;10.81;99.17;101836.47;10527236;27;20143;-74
2022/05/17 03:35:39;;;;;;;10.25;5.90;;;;;;;10.93;98.57;101840.66;10519856;27;20496;-75
2022/05/17 03:40:41;;;;;;;12.10;7.43;;;;;;;10.97;98.52;101845.28;10506714;27;20040;-75
2022/05/17 03:45:41;;;;;;;13.07;8.38;;;;;;;11.00;98.34;101849.00;10522631;27;20491;-75
2022/05/17 03:50:42;;;;;;;13.07;7.75;;;;;;;11.00;98.07;101854.25;10527078;27;20123;-75
2022/05/17 03:55:43;;;;;;;11.93;7.45;;;;;;;11.08;98.04;101853.81;10522028;27;20173;-75
2022/05/17 04:00:43;;;;;;;10.40;7.55;;;;;;;11.21;98.17;101850.22;10526674;27;20040;-75
2022/05/17 04:05:44;;;;;;;8.90;7.40;;;;;;;11.22;97.54;101855.56;10494391;27;20043;-75
2022/05/17 04:10:44;;;;;;;10.90;7.40;;;;;;;11.22;97.30;101860.81;10501142;27;20468;-75
2022/05/17 04:15:45;;;;;;;12.20;7.80;;;;;;;11.21;97.51;101863.31;10521065;27;20075;-74
2022/05/17 04:20:45;;;;;;;10.65;8.85;;;;;;;11.33;97.68;101855.31;10521080;27;20123;-74
2022/05/17 04:25:46;;;;;;;11.60;8.90;;;;;;;11.45;97.53;101866.53;10519778;27;20567;-75
2022/05/17 04:30:47;;;;;;;12.75;8.05;;;;;;;11.52;97.82;101858.22;10521839;27;20064;-74
2022/05/17 04:35:47;;;;;;;13.57;8.00;;;;;;;11.58;96.52;101865.53;10522248;27;20127;-75
2022/05/17 04:40:48;;;;;;;13.18;8.88;;;;;;;11.72;96.46;101867.25;10522280;27;20040;-74
2022/05/17 04:45:48;;;;;;;10.93;8.45;;;;;;;11.82;96.16;101870.41;10500768;28;20502;-75
2022/05/17 04:50:49;;;;;;;12.75;8.13;;;;;;;12.03;96.19;101871.69;10523948;27;20120;-76
2022/05/17 04:55:50;;;;;;;15.23;6.80;;;;;;;12.13;95.05;101872.22;10523443;27;20131;-74
2022/05/17 05:00:51;;;;;;;11.57;6.28;;;;;;;12.35;94.43;101871.75;10525483;27;20039;-74
2022/05/17 05:05:52;;;;;;;8.18;6.18;;;;;;;12.84;94.20;101863.03;10523519;27;20056;-74
2022/05/17 05:10:52;;;;;;;8.95;5.18;;;;;;;13.30;92.34;101863.69;10524933;27;20114;-74
2022/05/17 05:15:57;;;;;;;9.00;4.43;;;;;;;13.62;90.25;101867.13;10511408;27;20127;-74
2022/05/17 05:21:05;;;;;;;7.47;4.80;;;;;;;13.89;87.93;101871.97;10510068;27;20800;-74
2022/05/17 05:26:06;;;;;;;12.50;6.85;;;;;;;13.80;86.83;101881.22;10499980;27;20115;-74
2022/05/17 05:31:07;;;;;;;9.25;6.55;;;;;;;13.75;87.90;101882.69;10499933;27;20036;-73
2022/05/17 05:36:07;;;;;;;12.75;7.38;;;;;;;13.83;88.21;101880.47;10522040;27;20124;-74
2022/05/17 05:41:12;;;;;;;11.70;6.88;;;;;;;13.96;88.77;101892.50;10523078;27;20393;-74
2022/05/17 05:46:12;;;;;;;6.97;5.45;;;;;;;14.21;87.63;101877.94;10523873;27;20043;-73
2022/05/17 05:51:13;;;;;;;9.07;6.18;;;;;;;14.41;86.90;101886.81;10523879;27;20123;-74
2022/05/17 05:56:14;;;;;;;8.40;5.40;;;;;;;14.65;86.57;101883.53;10514079;27;20123;-74
2022/05/17 06:01:15;;;;;;;9.13;4.87;;;;;;;15.10;86.14;101880.34;10535758;27;20040;-74
2022/05/17 06:06:18;;;;;;;9.55;6.25;;;;;;;15.69;84.04;101881.19;10532697;27;20134;-74
2022/05/17 06:11:18;;;;;;;10.68;5.57;;;;;;;15.98;81.20;101878.91;10531870;27;20032;-73
2022/05/17 06:16:19;;;;;;;14.68;6.13;;;;;;;16.06;78.81;101889.78;10531154;27;20032;-74
2022/05/17 06:21:19;;;;;;;13.60;6.43;;;;;;;16.22;78.10;101906.25;10536472;27;20076;-74
2022/05/17 06:26:19;;;;;;;13.10;5.70;;;;;;;16.46;76.24;101905.44;10542988;27;20062;-74
2022/05/17 06:31:20;;;;;;;13.55;6.93;;;;;;;16.77;76.27;101901.38;10544459;27;20121;-74
2022/05/17 06:36:21;;;;;;;20.70;10.88;;;;;;;17.19;74.42;101906.50;10532276;27;20051;-74
2022/05/17 06:41:22;;;;;;;11.75;5.57;;;;;;;17.53;75.15;101909.50;10531054;27;20044;-73
2022/05/17 06:46:22;;;;;;;14.00;8.70;;;;;;;18.19;68.35;101914.41;10538578;27;20111;-75
2022/05/17 06:51:22;;;;;;;8.25;5.68;;;;;;;18.99;66.67;101899.22;10534978;27;20035;-73
2022/05/17 06:56:23;;;;;;;7.95;4.18;;;;;;;20.43;62.17;101896.78;10534600;27;20127;-74
2022/05/17 07:01:23;;;;;;;9.30;4.93;;;;;;;20.89;61.25;101901.38;10535540;27;20035;-74
2022/05/17 07:06:24;;;;;;;12.15;4.55;;;;;;;20.75;60.16;101909.91;10526504;27;20062;-74
2022/05/17 07:16:44;;;;;;;15.13;4.32;;;;;;;20.19;62.19;101921.03;10547993;27;20036;-74
2022/05/17 07:21:44;;;;;;;8.98;6.25;;;;;;;20.46;60.33;101915.47;10528472;28;20509;-74
2022/05/17 07:26:45;;;;;;;12.03;4.57;;;;;;;21.29;56.82;101917.28;10530220;28;20592;-75
2022/05/17 07:31:46;;;;;;;11.20;4.33;;;;;;;21.61;55.00;101925.00;10529172;28;20048;-76
2022/05/17 07:36:46;;;;;;;6.47;3.07;;;;;;;21.89;53.31;101920.22;10511484;28;20039;-75
2022/05/17 07:41:47;;;;;;;30.03;9.43;;;;;;;21.86;56.37;101934.34;10529726;28;20464;-75
2022/05/17 07:46:48;;;;;;;13.32;5.47;;;;;;;22.15;54.86;101934.88;10512231;28;20050;-74
2022/05/17 07:51:48;;;;;;;4.90;2.67;;;;;;;22.17;55.38;101942.00;10529644;28;20095;-74
2022/05/17 07:56:49;;;;;;;7.40;3.00;;;;;;;21.88;58.70;101942.41;10527531;28;20059;-74
2022/05/17 08:01:49;;;;;;;8.67;3.67;;;;;;;21.92;52.78;101937.13;10529721;28;20093;-74
2022/05/17 08:06:51;;;;;;;7.13;2.63;;;;;;;22.18;53.92;101934.00;10528952;28;20503;-74
2022/05/17 08:11:52;;;;;;;4.85;1.90;;;;;;;22.14;52.35;101932.16;10526410;28;20430;-74
2022/05/17 08:16:52;;;;;;;7.77;3.37;;;;;;;22.07;53.61;101933.84;10527906;28;20046;-74
2022/05/17 08:21:52;;;;;;;5.10;2.50;;;;;;;22.18;54.11;101936.69;10527500;28;20066;-75
2022/05/17 08:37:31;;;;;;;10.82;2.50;;;;;;;21.60;54.75;101926.75;10525905;28;20036;-74
2022/05/17 08:42:39;;;;;;;13.80;3.10;;;;;;;21.54;52.98;101931.97;10526002;28;20570;-74
2022/05/17 08:47:52;;;;;;;18.92;3.00;;;;;;;21.75;58.40;101931.53;10525814;28;20036;-74
2022/05/17 08:52:53;;;;;;;12.55;2.70;;;;;;;21.92;53.70;101926.47;10525945;28;20044;-75
2022/05/17 08:58:20;;;;;;;6.80;2.50;;;;;;;22.26;51.72;101918.16;10525066;28;20775;-75
2022/05/17 09:03:39;;;;;;;7.95;2.85;;;;;;;22.94;50.94;101920.91;10526710;28;20479;-75
2022/05/17 09:08:43;;;;;;;6.75;2.85;;;;;;;23.02;47.61;101928.16;10526476;28;20084;-75
2022/05/17 09:13:52;;;;;;;10.70;3.00;;;;;;;22.80;49.25;101926.09;10525520;28;20491;-74
2022/05/17 09:18:52;;;;;;;7.63;2.53;;;;;;;22.66;47.74;101921.44;10524725;28;20047;-74
2022/05/17 09:23:53;;;;;;;7.73;2.30;;;;;;;22.45;51.29;101914.00;10525150;28;20094;-74
2022/05/17 09:28:58;;;;;;;4.87;2.13;;;;;;;22.35;50.08;101914.72;10506880;28;20032;-75
2022/05/17 09:34:01;;;;;;;6.53;2.60;;;;;;;22.29;52.85;101919.09;10524168;28;20075;-74
2022/05/17 09:39:02;;;;;;;6.07;2.55;;;;;;;22.35;53.00;101907.63;10508869;28;20480;-74
2022/05/17 09:44:04;;;;;;;10.70;3.07;;;;;;;22.54;51.72;101913.28;10525699;28;20036;-74
2022/05/17 09:54:39;;;;;;;8.40;2.22;;;;;;;22.44;49.19;101906.84;10523914;28;20040;-74
2022/05/17 09:59:41;;;;;;;4.30;2.17;;;;;;;22.60;49.09;101905.34;10526008;28;20052;-74
2022/05/17 10:04:42;;;;;;;7.72;2.50;;;;;;;23.03;48.41;101902.34;10524127;28;20040;-75
2022/05/17 10:09:42;;;;;;;6.03;2.23;;;;;;;23.24;47.47;101900.84;10505915;28;20040;-74
2022/05/17 10:14:46;;;;;;;6.47;1.93;;;;;;;23.62;45.62;101884.31;10524066;28;20502;-74
2022/05/17 10:19:52;;;;;;;2.80;1.40;;;;;;;24.56;43.62;101870.78;10506525;28;20399;-74
2022/05/17 10:25:15;;;;;;;5.75;2.03;;;;;;;25.61;42.68;101864.03;10507150;28;20050;-75
2022/05/17 10:30:40;;;;;;;6.80;2.38;;;;;;;26.97;38.78;101846.78;10523160;28;20040;-74
2022/05/17 10:35:46;;;;;;;9.20;1.83;;;;;;;28.20;36.63;101848.56;10523611;28;20048;-75
2022/05/17 10:40:49;;;;;;;3.15;1.17;;;;;;;27.56;36.91;101846.44;10510058;28;20043;-75
2022/05/17 10:46:06;;;;;;;4.22;2.05;;;;;;;26.26;38.41;101853.28;10514056;28;20043;-74
2022/05/17 10:51:45;;;;;;;5.00;1.63;;;;;;;25.31;39.78;101852.34;10530358;28;20521;-75
2022/05/17 10:56:57;;;;;;;8.95;1.85;;;;;;;25.69;39.39;101851.50;10532411;28;20575;-75
2022/05/17 11:02:03;;;;;;;4.40;1.80;;;;;;;26.07;39.87;101847.91;10531021;28;20380;-75
2022/05/17 11:07:20;;;;;;;9.70;2.70;;;;;;;29.32;34.28;101831.88;10530922;28;20036;-75
2022/05/17 11:12:23;;;;;;;7.53;2.13;;;;;;;31.55;29.45;101825.69;10529730;28;20487;-75
2022/05/17 11:17:56;;;;;;;4.40;1.95;;;;;;;31.23;30.64;101824.66;10513461;28;20113;-75
2022/05/17 11:23:36;;;;;;;4.68;1.77;;;;;;;31.23;29.32;101817.41;10528655;28;20038;-75
2022/05/17 11:28:44;;;;;;;5.47;2.05;;;;;;;30.88;30.52;101808.31;10513137;28;20376;-75
2022/05/17 11:33:45;;;;;;;5.82;1.65;;;;;;;31.75;30.23;101795.41;10528850;28;20086;-75
2022/05/17 11:38:50;;;;;;;4.90;1.98;;;;;;;31.76;28.22;101803.50;10529417;28;20059;-76
2022/05/17 11:43:55;;;;;;;5.18;2.10;;;;;;;30.93;31.35;101794.69;10528739;28;20056;-75
2022/05/17 11:49:18;;;;;;;5.40;2.67;;;;;;;31.39;28.97;101792.72;10528285;28;20028;-72
2022/05/17 11:54:42;;;;;;;3.55;1.98;;;;;;;31.87;29.76;101794.22;10527118;28;20403;-73
2022/05/17 11:59:44;;;;;;;3.97;1.63;;;;;;;32.01;28.34;101785.69;10528769;28;20036;-72
2022/05/17 12:04:45;;;;;;;5.07;1.60;;;;;;;32.54;27.89;101773.34;10527895;28;20032;-72
2022/05/17 12:09:53;;;;;;;3.10;1.45;;;;;;;33.43;30.88;101776.88;10528927;28;20060;-74
2022/05/17 12:15:29;;;;;;;6.85;2.28;;;;;;;33.12;28.90;101769.75;10510732;28;20115;-72
2022/05/17 12:20:32;;;;;;;4.65;1.52;;;;;;;34.09;25.35;101769.13;10495574;28;20050;-72
2022/05/17 12:25:56;;;;;;;4.32;1.48;;;;;;;32.21;28.74;101760.75;10526815;28;20032;-72
2022/05/17 12:31:00;;;;;;;9.60;2.53;;;;;;;31.32;28.76;101754.13;10526243;28;20089;-73
2022/05/17 12:36:21;;;;;;;4.97;2.05;;;;;;;30.64;30.27;101739.53;10509676;28;20036;-73
2022/05/17 12:46:50;;;;;;;5.38;1.95;;;;;;;32.78;27.32;101729.22;10526165;28;20032;-74
2022/05/17 12:51:55;;;;;;;8.43;1.60;;;;;;;31.79;28.05;101732.16;10525401;28;20032;-73
2022/05/17 12:56:56;;;;;;;4.70;1.60;;;;;;;29.77;31.64;101736.75;10515260;27;20032;-73
2022/05/17 13:01:58;;;;;;;6.67;1.50;;;;;;;29.63;35.12;101734.31;10525193;27;20036;-72
2022/05/17 13:07:12;;;;;;;6.03;1.52;;;;;;;31.94;29.51;101725.44;10526948;27;20042;-73
2022/05/17 13:12:16;;;;;;;6.03;1.30;;;;;;;32.76;28.12;101716.69;10508753;27;20039;-73
2022/05/17 13:17:33;;;;;;;6.03;1.88;;;;;;;32.31;27.61;101708.13;10505931;27;20051;-72
2022/05/17 13:22:34;;;;;;;2.95;1.40;;;;;;;32.65;27.90;101703.47;10522409;27;20040;-73
2022/05/17 13:27:36;;;;;;;3.35;1.38;;;;;;;32.22;28.08;101698.44;10521775;27;20071;-73
2022/05/17 13:32:38;;;;;;;7.13;2.08;;;;;;;31.87;28.74;101692.25;10507447;27;20047;-73
2022/05/17 13:38:08;;;;;;;3.90;1.50;;;;;;;32.23;28.88;101697.50;10508391;27;20032;-72
2022/05/17 13:43:22;;;;;;;6.63;1.38;;;;;;;30.72;30.52;101691.63;10525740;27;20032;-73
2022/05/17 13:48:23;;;;;;;5.32;1.98;;;;;;;30.05;32.02;101678.69;10557904;27;20028;-72
2022/05/17 13:53:25;;;;;;;6.60;1.87;;;;;;;32.36;28.82;101670.97;10523892;27;20111;-73
2022/05/17 13:58:26;;;;;;;2.95;1.52;;;;;;;33.00;28.32;101659.91;10525202;27;20028;-71
2022/05/17 14:03:27;;;;;;;6.13;2.17;;;;;;;32.39;27.79;101667.25;10520964;28;20033;-71
2022/05/17 14:13:50;;;;;;;9.35;2.42;;;;;;;30.61;29.86;101646.84;10526474;28;20123;-71
2022/05/17 14:18:51;;;;;;;7.00;2.37;;;;;;;28.68;33.19;101660.38;10531833;28;20040;-72
2022/05/17 14:23:52;;;;;;;4.78;1.92;;;;;;;27.34;37.74;101647.69;10514047;28;20449;-72
2022/05/17 14:28:53;;;;;;;7.35;2.10;;;;;;;26.97;38.06;101654.28;10530650;27;20052;-73
2022/05/17 14:33:54;;;;;;;7.33;3.30;;;;;;;26.77;44.13;101653.53;10530195;27;20133;-72
2022/05/17 14:38:54;;;;;;;4.55;2.67;;;;;;;26.99;41.14;101651.59;10530381;27;20051;-75
2022/05/17 14:43:55;;;;;;;2.97;1.97;;;;;;;28.13;36.44;101648.66;10528437;27;20043;-75
2022/05/17 14:48:55;;;;;;;3.47;1.30;;;;;;;28.60;35.58;101648.84;10532017;27;20043;-75
2022/05/17 14:53:56;;;;;;;5.03;2.13;;;;;;;28.70;34.72;101641.53;10512694;27;20097;-75
2022/05/17 14:58:57;;;;;;;7.67;2.70;;;;;;;28.98;33.76;101638.41;10529050;27;20537;-75
2022/05/17 15:04:01;;;;;;;5.68;2.88;;;;;;;28.27;35.09;101638.59;10528086;27;20120;-75
2022/05/17 15:09:02;;;;;;;4.55;1.67;;;;;;;27.91;35.84;101627.38;10527958;27;20101;-74
2022/05/17 15:14:02;;;;;;;8.53;2.40;;;;;;;27.64;38.22;101631.28;10510546;27;20109;-75
2022/05/17 15:19:03;;;;;;;5.60;2.00;;;;;;;27.58;35.86;101621.50;10564299;27;20039;-76
2022/05/17 15:24:04;;;;;;;2.57;1.57;;;;;;;27.13;38.49;101610.31;10524808;27;20040;-74
2022/05/17 15:29:06;;;;;;;4.30;1.92;;;;;;;26.51;38.64;101617.03;10536825;27;20093;-75
2022/05/17 15:34:06;;;;;;;4.00;1.80;;;;;;;25.97;39.60;101610.16;10484540;28;20086;-75
2022/05/17 15:39:07;;;;;;;8.77;2.93;;;;;;;25.88;40.58;101608.44;10506850;27;20432;-75
2022/05/17 15:44:09;;;;;;;5.93;2.97;;;;;;;26.16;40.16;101611.00;10530765;27;20040;-77
2022/05/17 15:54:29;;;;;;;4.68;2.00;;;;;;;26.33;38.95;101600.16;10542295;27;19915;-74
2022/05/17 15:59:29;;;;;;;5.43;1.90;;;;;;;26.11;38.71;101591.31;10500839;27;20040;-75
2022/05/17 16:09:49;;;;;;;2.88;1.55;;;;;;;25.78;40.84;101594.16;10524437;27;20044;-75
2022/05/17 16:14:49;;;;;;;6.37;2.20;;;;;;;25.80;41.50;101594.16;10491608;27;20131;-75
2022/05/17 16:19:51;;;;;;;3.30;1.90;;;;;;;26.09;40.97;101596.69;10509722;27;20077;-74
2022/05/17 16:24:52;;;;;;;3.53;2.08;;;;;;;26.19;38.90;101584.16;10524707;27;20032;-75
2022/05/17 16:29:52;;;;;;;3.53;1.87;;;;;;;26.25;40.68;101577.84;10528897;27;20484;-75
2022/05/17 16:34:53;;;;;;;9.50;2.00;;;;;;;26.22;41.17;101576.09;10526407;27;20038;-75
2022/05/17 16:39:53;;;;;;;2.77;1.93;;;;;;;26.06;41.29;101575.25;10526180;28;20119;-74
2022/05/17 16:44:54;;;;;;;12.87;6.93;;;;;;;25.74;41.61;101576.31;10507938;27;20097;-74
2022/05/17 16:49:56;;;;;;;7.40;3.43;;;;;;;25.47;45.39;101571.97;10523263;27;20047;-75
2022/05/17 16:54:57;;;;;;;5.60;2.08;;;;;;;25.12;44.39;101571.09;10508681;27;20545;-75
2022/05/17 16:59:57;;;;;;;4.80;2.77;;;;;;;24.89;43.00;101574.69;10526615;27;20119;-75
2022/05/17 17:04:58;;;;;;;5.67;2.90;;;;;;;24.74;45.32;101572.03;10508202;27;20063;-74
2022/05/17 17:09:59;;;;;;;7.10;2.33;;;;;;;24.51;48.38;101572.00;10523806;27;20127;-74
2022/05/17 17:14:59;;;;;;;4.77;2.53;;;;;;;24.31;48.69;101578.22;10525021;27;20066;-75
2022/05/17 17:20:02;;;;;;;4.43;2.77;;;;;;;24.25;50.47;101579.09;10524243;27;20387;-74
2022/05/17 17:25:03;;;;;;;2.90;1.67;;;;;;;24.21;46.96;101584.44;10506578;27;20032;-74
2022/05/17 17:30:04;;;;;;;;;;;;;;;24.59;44.70;101581.81;10522906;27;20036;-75
2022/05/17 17:40:41;;;;;;;7.65;3.35;;;;;;;25.00;44.37;101576.47;10493827;27;20449;-75
2022/05/17 17:45:43;;;;;;;6.53;2.07;;;;;;;24.75;43.73;101569.38;10522084;27;20084;-75
2022/05/17 17:50:46;;;;;;;5.40;1.77;;;;;;;24.50;43.78;101579.13;10525633;27;20036;-75
2022/05/17 17:55:47;;;;;;;4.38;2.42;;;;;;;24.33;48.86;101582.66;10527644;27;20040;-75
2022/05/17 18:00:48;;;;;;;;;;;;;;;24.17;45.58;101587.09;10514060;27;20113;-75
2022/05/17 18:05:50;;;;;;;6.30;2.37;;;;;;;23.88;48.45;101587.88;10549718;27;19916;-75
2022/05/17 18:10:51;;;;;;;7.25;2.70;;;;;;;23.59;48.28;101590.41;10528172;27;20093;-74
2022/05/17 18:15:51;;;;;;;4.07;2.00;;;;;;;23.43;50.64;101590.31;10519748;27;20089;-76
2022/05/17 18:20:52;;;;;;;2.67;2.00;;;;;;;23.18;48.84;101583.91;10505101;28;20036;-76
2022/05/17 18:25:53;;;;;;;6.53;2.43;;;;;;;22.89;51.39;101579.25;10490618;27;20090;-76
2022/05/17 18:30:54;;;;;;;4.43;2.50;;;;;;;22.52;51.34;101579.81;10489896;28;20040;-75
2022/05/17 18:35:56;;;;;;;9.07;3.67;;;;;;;22.16;53.03;101570.53;10561521;27;20043;-75
2022/05/17 18:40:56;;;;;;;5.05;2.00;;;;;;;21.89;53.62;101565.81;10510336;27;20040;-74
2022/05/17 18:45:57;;;;;;;3.80;2.50;;;;;;;21.63;55.13;101561.94;10529310;27;20042;-76
2022/05/17 18:50:57;;;;;;;7.50;3.27;;;;;;;21.39;55.75;101559.81;10510040;27;20487;-76
2022/05/17 18:55:58;;;;;;;14.53;10.67;;;;;;;21.02;58.66;101562.81;10528305;27;20063;-78
2022/05/17 19:00:59;;;;;;;12.90;8.30;;;;;;;20.81;59.38;101568.72;10526997;27;20032;-76
2022/05/17 19:06:04;;;;;;;6.90;2.83;;;;;;;20.57;60.62;101582.44;10530888;27;20032;-75
2022/05/17 19:16:24;;;;;;;5.18;3.65;;;;;;;19.94;61.82;101593.69;10527408;27;20102;-75
2022/05/17 19:21:35;;;;;;;5.05;2.50;;;;;;;19.64;63.44;101600.09;10524156;27;20043;-74
2022/05/17 19:26:37;;;;;;;4.63;3.03;;;;;;;19.28;65.68;101604.59;10527366;27;20055;-74
2022/05/17 19:31:40;;;;;;;5.07;2.30;;;;;;;19.06;65.95;101603.19;10509184;27;20476;-75
2022/05/17 19:42:04;;;;;;;6.75;2.25;;;;;;;18.56;68.92;101607.22;10514506;27;20032;-75
2022/05/17 19:47:05;;;;;;;5.65;2.17;;;;;;;18.42;68.73;101617.44;10504772;27;20043;-75
2022/05/17 19:52:06;;;;;;;10.35;4.18;;;;;;;18.29;68.12;101626.81;10503695;27;20506;-75
2022/05/17 19:57:06;;;;;;;7.38;2.33;;;;;;;18.16;68.21;101616.72;10509924;27;20052;-75
2022/05/17 20:02:07;;;;;;;8.38;2.65;;;;;;;18.12;68.58;101620.16;10523267;27;20039;-75
2022/05/17 20:07:07;;;;;;;6.28;2.63;;;;;;;18.03;68.35;101626.97;10523159;27;20123;-75
2022/05/17 20:12:09;;;;;;;12.98;3.00;;;;;;;17.87;69.33;101628.22;10522653;27;20407;-75
2022/05/17 20:17:10;;;;;;;5.60;2.25;;;;;;;17.71;70.69;101626.88;10525785;27;20115;-75
2022/05/17 20:22:10;;;;;;;6.82;2.45;;;;;;;17.47;71.52;101624.38;10524685;27;20042;-75
2022/05/17 20:27:11;;;;;;;8.65;2.53;;;;;;;17.40;71.53;101617.09;10524144;27;20101;-75
2022/05/17 20:32:13;;;;;;;5.38;2.22;;;;;;;17.30;72.68;101627.38;10483547;28;20040;-75
2022/05/17 20:37:14;;;;;;;5.88;2.33;;;;;;;17.27;72.73;101635.22;10482851;28;20078;-75
2022/05/17 20:42:14;;;;;;;12.55;4.20;;;;;;;17.29;72.56;101641.44;10499612;27;20173;-77
2022/05/17 20:52:34;;;;;;;8.18;4.53;;;;;;;17.05;73.59;101645.94;10519887;27;20032;-77
2022/05/17 20:57:36;;;;;;;3.80;2.42;;;;;;;16.94;73.91;101641.16;10506721;27;20392;-76
2022/05/17 21:02:38;;;;;;;4.57;2.03;;;;;;;16.87;73.31;101644.44;10525907;27;20040;-76
2022/05/17 21:07:39;;;;;;;3.67;2.30;;;;;;;16.73;74.11;101639.56;10498461;27;20036;-77
2022/05/17 21:12:39;;;;;;;4.72;2.17;;;;;;;16.52;75.04;101644.09;10538568;27;20062;-77
2022/05/17 21:17:40;;;;;;;5.88;2.50;;;;;;;16.37;75.83;101636.53;10489956;27;20028;-77
2022/05/17 21:22:41;;;;;;;6.82;2.47;;;;;;;16.23;76.19;101644.84;10506931;27;20480;-77
2022/05/17 21:27:42;;;;;;;10.02;3.22;;;;;;;16.08;76.74;101637.25;10523240;27;20036;-76
2022/05/17 21:32:42;;;;;;;5.13;2.38;;;;;;;15.98;78.21;101643.94;10507613;27;20497;-76
2022/05/17 21:37:43;;;;;;;4.82;2.25;;;;;;;15.88;79.41;101636.50;10521721;27;20061;-76
2022/05/17 21:42:44;;;;;;;5.28;4.10;;;;;;;15.81;79.15;101632.69;10466919;28;20036;-76
2022/05/17 21:47:46;;;;;;;5.82;2.65;;;;;;;15.72;79.12;101627.06;10526426;27;20064;-76
2022/05/17 21:52:47;;;;;;;7.88;2.58;;;;;;;15.66;79.87;101630.38;10505557;27;20048;-77
2022/05/17 21:57:47;;;;;;;3.55;2.70;;;;;;;15.56;79.60;101631.75;10507018;27;20134;-76
2022/05/17 22:02:48;;;;;;;6.53;2.95;;;;;;;15.52;80.29;101628.94;10507172;27;20070;-76
2022/05/17 22:07:49;;;;;;;5.05;3.08;;;;;;;15.51;79.96;101638.56;10523781;27;20440;-77
2022/05/17 22:18:08;;;;;;;7.60;2.67;;;;;;;15.27;80.51;101646.41;10525623;27;20035;-76
2022/05/17 22:23:09;;;;;;;8.77;3.10;;;;;;;15.17;81.39;101650.41;10522531;27;20067;-76
2022/05/17 22:28:09;;;;;;;8.77;2.83;;;;;;;15.13;82.73;101648.47;10524270;27;20432;-76
2022/05/17 22:33:10;;;;;;;4.90;2.72;;;;;;;15.02;82.51;101649.75;10524343;27;20067;-76
2022/05/17 22:38:10;;;;;;;5.05;2.67;;;;;;;14.93;82.97;101650.28;10475543;28;20051;-76
2022/05/17 22:43:11;;;;;;;7.95;4.60;;;;;;;14.87;83.32;101661.44;10489179;28;20553;-76
2022/05/17 22:48:11;;;;;;;4.13;2.33;;;;;;;14.79;83.37;101662.84;10523106;27;20036;-76
2022/05/17 22:53:12;;;;;;;6.75;3.10;;;;;;;14.70;83.39;101666.00;10512848;27;20048;-76
2022/05/17 22:58:12;;;;;;;7.10;3.20;;;;;;;14.66;83.75;101667.56;10519723;27;20119;-76
2022/05/17 23:03:13;;;;;;;6.43;3.75;;;;;;;14.59;84.20;101654.94;10530508;27;20127;-76
2022/05/17 23:08:13;;;;;;;6.43;3.28;;;;;;;14.56;84.77;101659.19;10529977;27;20036;-76
2022/05/17 23:13:14;;;;;;;5.80;4.30;;;;;;;14.54;85.25;101662.66;10563271;27;20032;-76
2022/05/17 23:18:14;;;;;;;6.53;3.15;;;;;;;14.49;85.07;101666.84;10527579;27;20440;-76
2022/05/17 23:23:15;;;;;;;7.28;3.90;;;;;;;14.46;85.71;101668.41;10528992;27;20514;-75
2022/05/17 23:28:24;;;;;;;7.30;4.28;;;;;;;14.37;85.97;101669.81;10530826;28;20066;-76
2022/05/17 23:33:26;;;;;;;5.45;2.90;;;;;;;14.27;86.83;101678.13;10526820;27;20036;-76
2022/05/17 23:38:27;;;;;;;5.18;3.67;;;;;;;14.17;86.96;101678.53;10530223;27;20036;-76
2022/05/17 23:43:27;;;;;;;5.70;3.05;;;;;;;14.13;87.37;101677.50;10528304;27;20042;-76
2022/05/17 23:48:28;;;;;;;10.02;3.58;;;;;;;14.08;88.29;101676.41;10527459;27;20516;-76
2022/05/17 23:53:28;;;;;;;8.07;4.47;;;;;;;14.01;87.72;101684.84;10526607;27;20046;-76
2022/05/17 23:58:29;;;;;;;10.30;3.22;;;;;;;13.94;89.09;101686.25;10507191;27;20152;-77
